Current Weather

Denton Enterprise

Denton, Texas (KDTO)

Report from: Friday, February 23, 2024 1:53 PM CST
Current time: Friday, February 23, 2024 2:48 PM CST

Nearby weather – Weather history – Daily summaries
Weather forecast

Temperature21.1°C (70.0°F)
Dew point1.1°C (34.0°F)
Winds 11 kts (5.7 m/s, 12.7 mph) Northwest (310°)
Wind gusts 21 kts (10.8 m/s, 24.2 mph)
Visibility10 mi. (16.1 km)
Clouds Sky clear
Altimeter30.08 in.Hg (1019 mB)
Relative humidity26 %
Density altitude652 ft. (199 m)
Sea-level pressure101.8 kPa (1018 mB, 30.06 in.Hg)
Remarks Automated weather observing station with precipitation discriminator
Flight conditions Visual Meteorological Conditions
Raw dataKDTO 231953Z 31011G21KT 10SM CLR 21/01 A3008 RMK AO2 SLP181 T02110011
An error has occurred. This application may no longer respond until reloaded. Reload 🗙